Colona, Colorado
Current Conditions -  °F | °C
As of 8:53 AM on Tuesday 21 Oct 2014 (Local Time) from KMTJ Reporting Station
Overcast Overcast  
Wind Chill: 52°   Ceiling: 10000
Heat Index: 52°   Visibility: 10mi
Dew Point: 40°   Wind: 7mph
Humidity: 63%   Direction: 120°ESE
Pressure: 30.14"   Gusts: NA
Location:  38.4027°N, 107.89°W
Report Text: KMTJ 211453Z AUTO 12006KT 10SM FEW080 OVC100 11/04 A3014 RMK AO2 SLP158 T01110044 53004
Loading
Personal Weather Stations






























Interactive Weather Map
Tropical Storm Tracking
New forecast layout! Learn more

10-Day Weather Forecast

Advertisements
Track Severe Weather on mobile